Time;durP1;ratioP1;P1;durP2;ratioP2;P2;SDS_P1;SDS_P2;PMS_P1;PMS_P2;Temp;Humidity;BMP_temperature;BMP_pressure;BME280_temperature;BME280_humidity;BME280_pressure;Samples;Min_cycle;Max_cycle;Signal;HPM_P1;HPM_P2
2023/08/10 00:02:14;;;;;;;95.05;56.00;;;26.30;99.90;;;;;;5094821;28;20516;-66
2023/08/10 00:04:41;;;;;;;96.60;61.67;;;26.30;99.90;;;;;;5094680;28;20016;-66
2023/08/10 00:07:08;;;;;;;99.85;64.35;;;26.40;99.90;;;;;;5094697;28;20024;-64
2023/08/10 00:09:34;;;;;;;94.60;61.15;;;26.40;99.90;;;;;;5094476;28;20040;-66
2023/08/10 00:12:01;;;;;;;97.65;57.13;;;26.50;99.90;;;;;;5094564;28;20024;-65
2023/08/10 00:14:27;;;;;;;83.00;53.45;;;26.50;99.90;;;;;;5094340;28;20024;-66
2023/08/10 00:16:54;;;;;;;84.80;49.47;;;26.50;99.90;;;;;;5094336;28;20032;-65
2023/08/10 00:19:20;;;;;;;74.28;51.58;;;26.60;99.90;;;;;;5094301;28;20022;-66
2023/08/10 00:21:47;;;;;;;77.72;51.28;;;26.70;99.90;;;;;;5094544;28;20061;-65
2023/08/10 00:24:13;;;;;;;86.90;56.13;;;26.70;99.90;;;;;;5094451;28;20016;-65
2023/08/10 00:26:40;;;;;;;80.03;51.63;;;26.70;99.90;;;;;;5094202;28;20051;-66
2023/08/10 00:29:06;;;;;;;83.03;52.35;;;26.70;99.90;;;;;;5094664;28;20077;-66
2023/08/10 00:31:33;;;;;;;117.68;77.38;;;26.80;99.90;;;;;;5094227;28;20024;-66
2023/08/10 00:33:59;;;;;;;82.82;54.55;;;26.80;99.90;;;;;;5094055;28;20030;-65
2023/08/10 00:36:26;;;;;;;80.00;51.30;;;26.90;99.90;;;;;;5094249;28;20473;-66
2023/08/10 00:38:52;;;;;;;86.95;50.58;;;26.90;99.90;;;;;;5094088;28;20078;-66
2023/08/10 00:41:19;;;;;;;165.13;115.07;;;27.00;99.90;;;;;;5094010;28;20024;-66
2023/08/10 00:43:45;;;;;;;84.50;52.45;;;27.00;99.90;;;;;;5093977;28;20381;-66
2023/08/10 00:46:12;;;;;;;86.50;51.58;;;27.10;99.90;;;;;;5093956;28;20473;-66
2023/08/10 00:48:39;;;;;;;72.47;43.67;;;27.10;99.90;;;;;;5093764;28;20088;-67
2023/08/10 00:51:06;;;;;;;65.45;40.92;;;27.20;99.90;;;;;;5093869;28;20017;-66
2023/08/10 00:53:32;;;;;;;74.57;42.17;;;27.30;99.90;;;;;;5093797;28;20039;-66
2023/08/10 00:56:01;;;;;;;67.82;42.03;;;27.40;99.90;;;;;;5093719;28;20024;-67
2023/08/10 00:58:30;;;;;;;66.43;44.50;;;27.40;99.90;;;;;;5084133;28;20036;-65
2023/08/10 01:00:57;;;;;;;73.75;43.47;;;27.40;99.90;;;;;;5087857;28;20030;-66
2023/08/10 01:03:23;;;;;;;66.30;41.72;;;27.30;99.90;;;;;;5093792;28;20027;-65
2023/08/10 01:06:06;;;;;;;72.38;45.10;;;27.40;99.90;;;;;;5093787;28;20056;-65
2023/08/10 01:08:47;;;;;;;82.13;44.95;;;27.40;99.90;;;;;;5093950;28;20035;-66
2023/08/10 01:11:33;;;;;;;71.40;46.22;;;27.40;99.90;;;;;;5093722;28;20508;-66
2023/08/10 01:14:13;;;;;;;76.63;46.13;;;27.40;99.90;;;;;;5094931;28;20039;-66
2023/08/10 01:16:42;;;;;;;85.43;53.65;;;27.50;99.90;;;;;;5095574;28;20073;-66
2023/08/10 01:19:26;;;;;;;94.03;54.10;;;27.60;99.90;;;;;;5097194;28;20043;-65
2023/08/10 01:22:02;;;;;;;81.65;51.08;;;27.70;99.90;;;;;;5114154;28;20357;-66
2023/08/10 01:24:36;;;;;;;76.30;47.97;;;27.70;99.90;;;;;;5113744;28;20027;-66
2023/08/10 01:27:03;;;;;;;74.68;46.08;;;27.90;99.90;;;;;;5113912;28;20024;-66
2023/08/10 01:29:30;;;;;;;73.75;46.58;;;27.90;99.90;;;;;;5114171;28;20434;-67
2023/08/10 01:31:56;;;;;;;71.60;45.25;;;27.90;99.90;;;;;;5114024;28;20027;-66
2023/08/10 01:34:23;;;;;;;68.80;43.00;;;28.00;99.90;;;;;;5114145;28;20022;-64
2023/08/10 01:36:49;;;;;;;68.60;42.80;;;28.00;99.90;;;;;;5114001;28;20034;-66
2023/08/10 01:39:15;;;;;;;61.28;36.42;;;28.10;99.90;;;;;;5114114;28;20099;-65
2023/08/10 01:41:42;;;;;;;51.28;30.70;;;28.20;99.90;;;;;;5114196;28;20020;-65
2023/08/10 01:44:09;;;;;;;52.78;30.13;;;28.30;99.90;;;;;;5113926;28;20475;-65
2023/08/10 01:46:39;;;;;;;56.88;28.90;;;28.40;99.90;;;;;;5113820;28;20028;-65
2023/08/10 01:49:08;;;;;;;49.03;28.38;;;28.50;99.90;;;;;;5113951;28;20076;-66
2023/08/10 01:51:37;;;;;;;47.17;28.55;;;28.50;99.90;;;;;;5113914;28;20034;-65
2023/08/10 01:54:06;;;;;;;47.95;31.13;;;28.60;99.90;;;;;;5113804;28;20059;-65
2023/08/10 01:56:33;;;;;;;39.83;22.45;;;28.60;99.90;;;;;;5113681;28;20024;-66
2023/08/10 01:59:00;;;;;;;40.22;22.15;;;28.70;99.90;;;;;;5113849;28;20022;-65
2023/08/10 02:01:26;;;;;;;41.75;23.02;;;28.70;99.90;;;;;;5113730;28;20015;-66
2023/08/10 02:03:53;;;;;;;49.10;22.27;;;28.80;99.90;;;;;;5114062;28;20019;-65
2023/08/10 02:06:19;;;;;;;43.10;21.33;;;28.90;99.90;;;;;;5114043;28;20384;-64
2023/08/10 02:08:46;;;;;;;115.50;74.80;;;29.00;99.90;;;;;;5113281;28;20072;-64
2023/08/10 02:11:12;;;;;;;63.95;39.05;;;29.10;99.90;;;;;;5113350;28;20024;-65
2023/08/10 02:13:39;;;;;;;46.38;28.10;;;29.20;99.90;;;;;;5113348;28;20468;-68
2023/08/10 02:16:05;;;;;;;52.67;36.20;;;29.20;99.90;;;;;;5113193;28;20114;-65
2023/08/10 02:18:32;;;;;;;60.10;35.35;;;29.20;99.90;;;;;;5114340;28;20468;-64
2023/08/10 02:20:58;;;;;;;44.55;23.83;;;29.30;99.90;;;;;;5117680;28;20490;-64
2023/08/10 02:23:25;;;;;;;42.83;26.10;;;29.40;99.90;;;;;;5100148;28;20104;-65
2023/08/10 02:25:51;;;;;;;48.20;29.33;;;29.50;99.90;;;;;;5094294;28;20500;-65
2023/08/10 02:28:17;;;;;;;42.97;23.95;;;29.50;99.90;;;;;;5096742;28;20028;-63
2023/08/10 02:30:45;;;;;;;45.88;27.85;;;29.60;99.90;;;;;;5096604;28;20039;-64
2023/08/10 02:33:11;;;;;;;26.73;16.52;;;29.70;99.90;;;;;;5096869;28;20103;-64
2023/08/10 02:35:38;;;;;;;27.33;13.05;;;29.70;99.90;;;;;;5096560;28;20028;-67
2023/08/10 02:38:04;;;;;;;31.98;15.68;;;29.70;99.90;;;;;;5095159;28;20028;-67
2023/08/10 02:40:31;;;;;;;29.50;13.73;;;29.70;99.90;;;;;;5096515;28;20083;-67
2023/08/10 02:42:57;;;;;;;33.88;13.43;;;29.80;99.90;;;;;;5092642;28;20016;-67
2023/08/10 02:45:24;;;;;;;23.48;14.52;;;29.80;99.90;;;;;;5085605;28;20067;-66
2023/08/10 02:47:50;;;;;;;26.42;13.70;;;29.70;99.90;;;;;;5085797;28;20073;-66
2023/08/10 02:50:17;;;;;;;25.23;10.30;;;29.70;99.90;;;;;;5086823;28;20077;-65
2023/08/10 02:52:43;;;;;;;16.65;9.30;;;29.80;99.90;;;;;;5085228;28;20020;-65
2023/08/10 02:55:10;;;;;;;22.05;10.82;;;29.90;99.90;;;;;;5084894;28;20028;-66
2023/08/10 02:57:36;;;;;;;24.08;11.10;;;29.90;99.90;;;;;;5086677;28;20024;-66
2023/08/10 03:00:06;;;;;;;22.02;12.02;;;29.90;99.90;;;;;;5085361;28;20017;-66
2023/08/10 03:02:33;;;;;;;26.42;13.52;;;29.90;99.90;;;;;;5084349;28;20448;-65
2023/08/10 03:04:59;;;;;;;26.02;12.38;;;29.90;99.90;;;;;;5086146;28;20052;-66
2023/08/10 03:07:27;;;;;;;21.27;12.20;;;30.10;99.90;;;;;;5085635;28;20072;-66
2023/08/10 03:09:54;;;;;;;27.95;14.60;;;30.10;99.90;;;;;;5084277;28;20223;-66
2023/08/10 03:12:20;;;;;;;20.10;12.85;;;30.00;99.90;;;;;;5086154;28;20551;-66
2023/08/10 03:14:47;;;;;;;25.63;14.98;;;30.00;99.90;;;;;;5085847;28;20081;-67
2023/08/10 03:17:14;;;;;;;37.50;15.55;;;30.00;99.90;;;;;;5083577;28;20033;-64
2023/08/10 03:19:42;;;;;;;29.00;15.55;;;30.10;99.90;;;;;;5086096;28;20020;-64
2023/08/10 03:22:09;;;;;;;23.00;15.55;;;30.30;99.90;;;;;;5085677;28;20035;-64
2023/08/10 03:24:37;;;;;;;27.95;16.23;;;30.30;99.90;;;;;;5083859;28;20074;-64
2023/08/10 03:27:03;;;;;;;28.13;16.92;;;30.40;99.90;;;;;;5085291;28;20392;-67
2023/08/10 03:29:30;;;;;;;28.02;14.75;;;30.40;99.90;;;;;;5085572;28;20384;-68
2023/08/10 03:31:56;;;;;;;25.70;15.98;;;30.30;99.90;;;;;;5083924;28;20013;-65
2023/08/10 03:34:23;;;;;;;23.75;13.88;;;30.40;99.90;;;;;;5085526;28;20432;-67
2023/08/10 03:36:49;;;;;;;17.50;11.52;;;30.40;99.90;;;;;;5085202;28;20016;-64
2023/08/10 03:39:16;;;;;;;22.38;13.23;;;30.30;99.90;;;;;;5083981;28;20040;-65
2023/08/10 03:41:42;;;;;;;32.30;13.80;;;30.40;99.90;;;;;;5085722;28;20012;-66
2023/08/10 03:44:08;;;;;;;23.45;13.85;;;30.50;99.90;;;;;;5085301;28;20040;-65
2023/08/10 03:46:35;;;;;;;19.40;13.10;;;30.60;99.90;;;;;;5083757;28;20056;-65
2023/08/10 03:49:01;;;;;;;23.58;12.57;;;30.60;99.90;;;;;;5094321;28;20028;-66
2023/08/10 03:51:28;;;;;;;25.73;15.02;;;30.70;99.90;;;;;;5087817;28;20077;-66
2023/08/10 03:53:54;;;;;;;36.20;16.95;;;30.70;99.90;;;;;;5084341;28;20032;-65
2023/08/10 03:56:21;;;;;;;32.85;15.32;;;30.80;99.90;;;;;;5078179;28;20017;-64
2023/08/10 03:58:48;;;;;;;24.35;14.88;;;30.90;99.90;;;;;;5078082;28;20086;-64
2023/08/10 04:01:14;;;;;;;28.50;15.25;;;30.90;99.90;;;;;;5092486;28;20012;-68
2023/08/10 04:03:41;;;;;;;27.30;16.02;;;30.90;99.90;;;;;;5078344;28;20019;-64
2023/08/10 04:06:08;;;;;;;31.02;17.27;;;31.00;99.90;;;;;;5079465;28;20027;-64
2023/08/10 04:08:34;;;;;;;28.05;15.38;;;31.10;99.90;;;;;;5085231;28;20024;-64
2023/08/10 04:11:01;;;;;;;32.13;16.90;;;31.10;99.90;;;;;;5083835;28;20139;-65
2023/08/10 04:13:27;;;;;;;25.95;15.38;;;31.20;99.90;;;;;;5084205;28;20028;-64
2023/08/10 04:15:54;;;;;;;26.30;15.00;;;31.20;99.90;;;;;;5085172;28;20078;-63
2023/08/10 04:18:20;;;;;;;29.38;16.20;;;31.20;99.90;;;;;;5083437;28;20102;-68
2023/08/10 04:20:47;;;;;;;26.98;15.45;;;31.30;99.90;;;;;;5082662;28;20047;-63
2023/08/10 04:23:13;;;;;;;29.25;14.75;;;31.30;99.90;;;;;;5084585;28;20066;-68
2023/08/10 04:25:40;;;;;;;33.47;16.30;;;31.30;99.90;;;;;;5082999;28;20019;-63
2023/08/10 04:28:07;;;;;;;37.08;20.50;;;31.30;99.90;;;;;;5083661;28;20034;-64
2023/08/10 04:30:33;;;;;;;34.70;20.63;;;31.30;99.90;;;;;;5084788;28;20050;-63
2023/08/10 04:33:00;;;;;;;66.55;42.55;;;31.30;99.90;;;;;;5082744;28;20090;-63
2023/08/10 04:35:26;;;;;;;46.90;30.95;;;31.30;99.90;;;;;;5083784;28;20028;-61
2023/08/10 04:37:53;;;;;;;47.15;27.27;;;31.30;99.90;;;;;;5085125;28;20027;-65
2023/08/10 04:40:20;;;;;;;173.27;115.85;;;31.30;99.90;;;;;;5117699;22;20105;-63
2023/08/10 04:42:47;;;;;;;89.95;54.08;;;31.40;99.90;;;;;;5106483;28;20023;-66
2023/08/10 04:45:14;;;;;;;124.82;75.30;;;31.40;99.90;;;;;;5103560;28;20027;-64
2023/08/10 04:47:41;;;;;;;62.35;37.40;;;31.30;99.90;;;;;;5101977;28;20024;-67
2023/08/10 04:50:07;;;;;;;130.90;84.57;;;31.40;99.90;;;;;;5105955;28;20426;-64
2023/08/10 04:52:34;;;;;;;50.30;30.92;;;31.40;99.90;;;;;;5104883;28;20031;-63
2023/08/10 04:55:02;;;;;;;28.73;16.90;;;31.50;99.90;;;;;;5101778;28;20024;-63
2023/08/10 04:57:28;;;;;;;24.05;13.90;;;31.40;99.90;;;;;;5102617;28;20084;-64
2023/08/10 04:59:55;;;;;;;26.35;14.93;;;31.60;99.90;;;;;;5101280;28;20495;-64
2023/08/10 05:02:21;;;;;;;25.25;16.23;;;31.60;99.90;;;;;;5097702;28;20526;-66
2023/08/10 05:04:47;;;;;;;27.88;13.63;;;31.60;99.90;;;;;;5104085;28;20047;-66
2023/08/10 05:07:14;;;;;;;26.88;14.27;;;31.70;99.90;;;;;;5104401;28;20024;-66
2023/08/10 05:09:41;;;;;;;20.08;12.90;;;31.70;99.90;;;;;;5102222;28;20024;-65
2023/08/10 05:12:07;;;;;;;25.20;14.48;;;31.70;99.90;;;;;;5103931;28;20020;-66
2023/08/10 05:14:34;;;;;;;26.30;12.63;;;31.70;99.90;;;;;;5104041;28;20059;-65
2023/08/10 05:17:00;;;;;;;25.25;13.27;;;31.80;99.90;;;;;;5107073;28;20015;-67
2023/08/10 05:19:27;;;;;;;20.10;13.35;;;31.80;99.90;;;;;;5103643;28;20077;-64
2023/08/10 05:21:53;;;;;;;31.08;13.95;;;31.90;99.90;;;;;;5108609;28;20111;-63
2023/08/10 05:24:20;;;;;;;24.73;12.93;;;32.00;99.90;;;;;;5104686;28;20012;-64
2023/08/10 05:26:47;;;;;;;24.48;13.68;;;32.10;99.90;;;;;;5102869;28;20039;-63
2023/08/10 05:29:13;;;;;;;32.00;17.40;;;32.20;99.90;;;;;;5095008;28;20016;-65
2023/08/10 05:31:40;;;;;;;24.42;17.05;;;32.20;99.90;;;;;;5084022;28;20054;-65
2023/08/10 05:34:06;;;;;;;30.83;20.63;;;32.30;99.90;;;;;;5082365;28;20071;-64
2023/08/10 05:36:33;;;;;;;21.92;15.15;;;32.30;99.90;;;;;;5079822;28;20119;-64
2023/08/10 05:38:59;;;;;;;18.58;13.48;;;32.40;99.90;;;;;;5082435;28;20093;-64
2023/08/10 05:41:25;;;;;;;63.78;46.35;;;32.40;99.90;;;;;;5084973;28;20029;-64
2023/08/10 05:43:52;;;;;;;112.18;84.65;;;32.40;99.90;;;;;;5081826;28;20016;-64
2023/08/10 05:46:18;;;;;;;28.48;17.42;;;32.40;99.90;;;;;;5082447;28;20560;-65
2023/08/10 05:48:45;;;;;;;19.60;13.57;;;32.60;99.90;;;;;;5083128;28;20036;-64
2023/08/10 05:51:11;;;;;;;28.23;13.45;;;32.60;99.90;;;;;;5084512;28;20028;-64
2023/08/10 05:53:38;;;;;;;21.00;12.05;;;32.60;99.90;;;;;;5090302;28;20074;-64
2023/08/10 05:56:04;;;;;;;18.85;12.65;;;32.60;99.90;;;;;;5086840;28;20024;-65
2023/08/10 05:58:31;;;;;;;22.88;14.48;;;32.50;99.90;;;;;;5088564;28;20012;-63
2023/08/10 06:00:57;;;;;;;43.03;31.92;;;32.50;99.90;;;;;;5089007;28;20090;-64
2023/08/10 06:03:24;;;;;;;65.43;46.70;;;32.40;99.90;;;;;;5086504;28;20024;-64
2023/08/10 06:05:51;;;;;;;29.83;17.20;;;32.40;99.90;;;;;;5088500;28;20272;-64
2023/08/10 06:08:18;;;;;;;40.90;26.60;;;32.40;99.90;;;;;;5088814;28;20101;-64
2023/08/10 06:10:45;;;;;;;31.42;22.67;;;32.30;99.90;;;;;;5085824;28;20020;-64
2023/08/10 06:13:11;;;;;;;32.30;21.50;;;32.30;99.90;;;;;;5087121;28;20111;-64
2023/08/10 06:15:38;;;;;;;21.17;13.77;;;32.30;99.90;;;;;;5087606;28;20035;-63
2023/08/10 06:18:05;;;;;;;18.15;12.88;;;32.30;99.90;;;;;;5085242;28;20039;-64
2023/08/10 06:20:32;;;;;;;16.50;11.73;;;32.40;99.90;;;;;;5086745;28;20419;-64
2023/08/10 06:22:59;;;;;;;19.02;12.98;;;32.50;99.90;;;;;;5087376;28;20104;-65
2023/08/10 06:25:25;;;;;;;22.50;15.93;;;32.50;99.90;;;;;;5085326;28;20017;-64
2023/08/10 06:27:52;;;;;;;26.55;17.05;;;32.50;99.90;;;;;;5086244;28;20499;-64
2023/08/10 06:30:19;;;;;;;23.58;14.05;;;32.50;99.90;;;;;;5086306;28;20028;-64
2023/08/10 06:32:46;;;;;;;19.15;12.02;;;32.50;99.90;;;;;;5085492;28;20484;-63
2023/08/10 06:35:12;;;;;;;16.48;10.70;;;32.50;99.90;;;;;;5090800;28;20039;-65
2023/08/10 06:37:39;;;;;;;21.70;11.93;;;32.60;99.90;;;;;;5088862;28;20475;-65
2023/08/10 06:40:08;;;;;;;17.45;10.73;;;32.70;99.80;;;;;;5086499;28;20531;-65
2023/08/10 06:42:37;;;;;;;16.85;11.02;;;32.80;98.60;;;;;;5086832;28;20304;-64
2023/08/10 06:45:05;;;;;;;21.45;12.80;;;32.80;98.30;;;;;;5085368;28;20029;-65
2023/08/10 06:47:32;;;;;;;24.33;13.35;;;32.80;98.40;;;;;;5092609;28;20068;-64
2023/08/10 06:49:59;;;;;;;25.75;13.25;;;32.80;99.30;;;;;;5096147;28;20016;-65
2023/08/10 06:52:25;;;;;;;226.48;182.00;;;32.90;99.90;;;;;;5096230;28;20028;-64
2023/08/10 06:54:52;;;;;;;21.60;12.45;;;32.90;99.80;;;;;;5096385;28;20480;-65
2023/08/10 06:57:22;;;;;;;21.60;12.18;;;32.90;99.60;;;;;;5096517;28;20082;-65
2023/08/10 06:59:49;;;;;;;17.00;12.07;;;33.00;99.10;;;;;;5096293;28;20040;-65
2023/08/10 07:02:17;;;;;;;19.75;11.60;;;33.10;99.00;;;;;;5095795;28;20498;-66
2023/08/10 07:04:45;;;;;;;16.38;11.38;;;33.20;98.80;;;;;;5095445;28;20024;-64
2023/08/10 07:07:12;;;;;;;17.23;8.73;;;33.20;98.30;;;;;;5080693;28;20028;-65
2023/08/10 07:09:39;;;;;;;140.85;111.20;;;33.10;95.60;;;;;;5075910;28;20032;-65
2023/08/10 07:12:06;;;;;;;15.18;10.73;;;33.00;95.80;;;;;;5086792;28;20024;-64
2023/08/10 07:14:32;;;;;;;21.92;11.70;;;32.90;96.40;;;;;;5075645;28;20544;-64
2023/08/10 07:16:59;;;;;;;21.23;14.25;;;32.90;96.70;;;;;;5075454;28;20036;-64
2023/08/10 07:19:25;;;;;;;26.77;15.07;;;32.90;97.30;;;;;;5075673;28;20040;-67
2023/08/10 07:21:55;;;;;;;29.73;18.42;;;32.90;97.20;;;;;;5075431;28;20052;-67
2023/08/10 07:24:23;;;;;;;24.45;14.25;;;32.80;96.50;;;;;;5075181;28;20070;-65
2023/08/10 07:26:51;;;;;;;21.88;12.50;;;32.80;95.80;;;;;;5089917;28;20039;-65
2023/08/10 07:29:18;;;;;;;26.60;12.88;;;32.90;95.80;;;;;;5086768;28;20040;-66
2023/08/10 07:31:46;;;;;;;21.80;11.95;;;33.00;96.00;;;;;;5075196;28;20028;-65
2023/08/10 07:34:12;;;;;;;16.08;11.35;;;33.10;95.90;;;;;;5075196;28;20099;-64
2023/08/10 07:36:39;;;;;;;19.65;12.73;;;33.20;96.20;;;;;;5075272;28;20107;-62
2023/08/10 07:39:05;;;;;;;23.50;14.13;;;33.20;96.30;;;;;;5075209;28;20055;-64
2023/08/10 07:41:32;;;;;;;76.97;55.17;;;33.40;95.80;;;;;;5075987;28;20354;-64
2023/08/10 07:43:58;;;;;;;55.63;37.30;;;33.40;95.70;;;;;;5078169;28;20218;-64
2023/08/10 07:46:26;;;;;;;91.70;60.72;;;33.50;95.70;;;;;;5085233;28;20073;-66
2023/08/10 07:48:53;;;;;;;30.48;19.02;;;33.60;95.20;;;;;;5086172;28;20425;-63
2023/08/10 07:51:19;;;;;;;24.83;13.18;;;33.70;94.90;;;;;;5095962;28;20028;-63
2023/08/10 07:53:46;;;;;;;17.65;12.75;;;33.80;95.30;;;;;;5095383;28;20433;-64
2023/08/10 07:56:12;;;;;;;30.15;16.42;;;33.80;94.80;;;;;;5092278;28;20058;-63
2023/08/10 07:58:39;;;;;;;23.90;13.77;;;33.80;95.10;;;;;;5092838;28;20023;-66
2023/08/10 08:01:08;;;;;;;28.65;12.63;;;33.70;95.30;;;;;;5095350;28;20020;-65
2023/08/10 08:03:35;;;;;;;21.13;14.27;;;33.60;95.30;;;;;;5095115;28;20031;-65
2023/08/10 08:06:01;;;;;;;27.38;15.00;;;33.50;95.20;;;;;;5094097;28;20293;-68
2023/08/10 08:08:28;;;;;;;25.85;14.77;;;33.40;95.50;;;;;;5093682;28;20024;-64
2023/08/10 08:10:55;;;;;;;34.50;23.73;;;33.40;95.90;;;;;;5094613;28;20475;-64
2023/08/10 08:13:22;;;;;;;23.17;12.32;;;33.30;95.90;;;;;;5095483;28;20028;-64
2023/08/10 08:15:49;;;;;;;20.80;11.68;;;33.30;96.00;;;;;;5094679;28;20020;-64
2023/08/10 08:18:41;;;;;;;22.63;12.60;;;33.20;96.00;;;;;;5095496;28;20368;-64
2023/08/10 08:21:08;;;;;;;;;;;33.20;96.40;;;;;;5095324;28;20024;-64
2023/08/10 08:23:35;;;;;;;24.52;15.20;;;33.20;96.10;;;;;;5094600;28;19931;-64
2023/08/10 08:26:01;;;;;;;25.15;14.80;;;33.20;96.50;;;;;;5094357;28;20495;-65
2023/08/10 08:28:28;;;;;;;26.05;16.00;;;33.20;96.70;;;;;;5085508;28;20538;-66
2023/08/10 08:30:54;;;;;;;23.88;13.45;;;33.30;96.80;;;;;;5083058;28;20016;-66
2023/08/10 08:33:21;;;;;;;246.15;208.80;;;33.20;96.80;;;;;;5084604;28;20023;-66
2023/08/10 08:35:48;;;;;;;171.95;144.13;;;33.20;96.90;;;;;;5082928;28;20028;-65
2023/08/10 08:38:15;;;;;;;22.60;12.10;;;33.30;97.20;;;;;;5081383;28;20131;-66
2023/08/10 08:40:42;;;;;;;275.00;245.75;;;33.30;97.40;;;;;;5084616;28;21343;-64
2023/08/10 08:43:11;;;;;;;236.95;212.10;;;33.30;97.50;;;;;;5081390;28;20019;-63
2023/08/10 08:45:40;;;;;;;725.03;580.67;;;33.30;97.10;;;;;;5082701;28;20047;-64
2023/08/10 08:48:10;;;;;;;36.13;16.45;;;33.30;97.00;;;;;;5083833;28;20457;-64
2023/08/10 08:50:37;;;;;;;170.10;31.25;;;33.40;97.40;;;;;;5084174;28;20025;-63
2023/08/10 08:53:06;;;;;;;53.97;34.05;;;33.40;97.40;;;;;;5082297;28;20058;-63
2023/08/10 08:55:33;;;;;;;92.13;59.00;;;33.30;96.90;;;;;;5083799;28;20081;-62
2023/08/10 08:58:00;;;;;;;54.00;36.10;;;33.30;96.90;;;;;;5082079;28;20012;-64
2023/08/10 09:00:26;;;;;;;23.30;14.93;;;33.20;97.00;;;;;;5086852;28;20530;-63
2023/08/10 09:02:53;;;;;;;22.40;12.98;;;33.20;96.60;;;;;;5092828;28;20016;-67
2023/08/10 09:05:20;;;;;;;18.88;13.60;;;33.20;96.30;;;;;;5093706;28;20023;-64
2023/08/10 09:07:47;;;;;;;26.70;15.80;;;33.10;96.40;;;;;;5080230;28;20028;-64
2023/08/10 09:10:13;;;;;;;29.48;14.75;;;33.10;96.70;;;;;;5091224;28;20023;-64
2023/08/10 09:12:41;;;;;;;24.20;13.93;;;33.10;96.80;;;;;;5076252;28;20024;-62
2023/08/10 09:15:11;;;;;;;40.70;25.92;;;33.10;97.20;;;;;;5082893;28;20024;-64
2023/08/10 09:17:44;;;;;;;43.20;26.58;;;33.10;96.80;;;;;;5084445;28;20465;-70
2023/08/10 09:20:16;;;;;;;50.72;25.77;;;33.00;96.60;;;;;;5093249;28;20032;-68
2023/08/10 09:22:43;;;;;;;142.68;92.60;;;33.00;96.60;;;;;;5085615;28;20028;-67
2023/08/10 09:25:09;;;;;;;115.97;70.90;;;33.00;96.70;;;;;;5088560;28;20496;-70
2023/08/10 09:27:36;;;;;;;150.95;98.97;;;33.00;96.70;;;;;;5084673;28;20119;-64
2023/08/10 09:30:07;;;;;;;186.48;111.50;;;33.00;96.80;;;;;;5083057;28;20024;-68
2023/08/10 09:32:35;;;;;;;118.83;62.43;;;33.00;97.00;;;;;;5075939;28;20028;-62
2023/08/10 09:35:03;;;;;;;129.13;61.90;;;33.00;96.80;;;;;;5077720;28;20347;-63
2023/08/10 09:37:30;;;;;;;120.60;57.45;;;33.00;97.60;;;;;;5084149;28;20032;-68
2023/08/10 09:40:07;;;;;;;56.50;31.05;;;33.10;97.10;;;;;;5083373;28;20040;-64
2023/08/10 09:42:35;;;;;;;79.35;39.58;;;33.10;97.30;;;;;;5083992;28;20081;-64
2023/08/10 09:45:09;;;;;;;48.00;25.10;;;33.10;97.00;;;;;;5082780;28;20033;-64
2023/08/10 09:47:39;;;;;;;33.25;19.00;;;33.10;97.30;;;;;;5084174;28;20019;-65
2023/08/10 09:50:12;;;;;;;41.13;26.33;;;33.10;97.30;;;;;;5086446;28;20104;-67
2023/08/10 09:52:40;;;;;;;51.67;31.70;;;33.20;96.80;;;;;;5085431;28;20032;-64
2023/08/10 09:55:07;;;;;;;50.40;31.48;;;33.10;97.10;;;;;;5083705;28;20020;-64
2023/08/10 09:57:36;;;;;;;36.47;24.40;;;33.10;97.00;;;;;;5081500;28;20035;-67
2023/08/10 10:00:04;;;;;;;150.07;80.90;;;33.10;97.10;;;;;;5083307;28;20050;-65
2023/08/10 10:02:31;;;;;;;374.73;213.25;;;33.10;97.30;;;;;;5076991;28;20068;-67
2023/08/10 10:04:57;;;;;;;199.00;115.10;;;33.10;97.00;;;;;;5076917;28;20067;-66
2023/08/10 10:07:27;;;;;;;195.98;108.70;;;33.10;96.90;;;;;;5077031;28;20020;-63
2023/08/10 10:09:58;;;;;;;49.90;27.08;;;33.10;96.80;;;;;;5077852;28;20290;-67
2023/08/10 10:12:25;;;;;;;119.43;60.20;;;33.10;96.40;;;;;;5077225;28;20032;-66
2023/08/10 10:14:52;;;;;;;94.82;55.40;;;33.10;96.60;;;;;;5076967;28;20024;-63
2023/08/10 10:17:20;;;;;;;63.05;38.53;;;33.00;97.10;;;;;;5073544;28;20025;-65
2023/08/10 10:19:50;;;;;;;173.73;97.13;;;33.00;97.40;;;;;;5074535;28;21038;-65
2023/08/10 10:22:18;;;;;;;89.47;48.47;;;33.00;97.10;;;;;;5078990;28;20032;-64
2023/08/10 10:24:44;;;;;;;82.13;44.60;;;32.90;97.00;;;;;;5083403;28;20027;-64
2023/08/10 10:27:13;;;;;;;61.58;34.63;;;32.90;97.10;;;;;;5083216;28;20388;-64
2023/08/10 10:29:49;;;;;;;65.03;35.90;;;33.00;97.10;;;;;;5080131;28;20032;-64
2023/08/10 10:32:19;;;;;;;100.70;56.95;;;33.00;97.20;;;;;;5071850;28;20021;-65
2023/08/10 10:34:46;;;;;;;87.07;50.67;;;32.90;96.90;;;;;;5073173;28;20031;-65
2023/08/10 10:37:14;;;;;;;69.60;39.17;;;32.90;96.80;;;;;;5072311;28;20037;-65
2023/08/10 10:39:42;;;;;;;80.53;44.63;;;32.90;96.60;;;;;;5073009;28;20049;-65
2023/08/10 10:42:12;;;;;;;53.70;31.63;;;32.90;96.60;;;;;;5093931;28;20069;-65
2023/08/10 10:45:03;;;;;;;46.30;26.70;;;32.90;96.40;;;;;;5081156;28;20036;-66
2023/08/10 10:47:41;;;;;;;53.92;28.83;;;32.80;96.40;;;;;;5075706;28;20036;-65
2023/08/10 11:27:44;;;;;;;791.53;710.15;;;31.70;97.90;;;;;;5131122;27;20123;-64
2023/08/10 11:30:13;;;;;;;53.05;36.95;;;32.30;98.50;;;;;;5110703;28;20375;-66
2023/08/10 11:32:41;;;;;;;69.78;53.88;;;32.30;98.90;;;;;;5111283;28;20081;-66
2023/08/10 11:35:09;;;;;;;448.23;398.73;;;32.20;98.80;;;;;;5107223;28;20077;-64
2023/08/10 11:37:38;;;;;;;794.42;709.30;;;32.10;99.00;;;;;;5105661;28;20107;-65
2023/08/10 11:40:11;;;;;;;67.38;35.17;;;32.00;99.30;;;;;;5110279;28;20060;-64
2023/08/10 11:42:42;;;;;;;55.10;30.35;;;32.00;99.50;;;;;;5110658;28;20020;-67
2023/08/10 11:45:11;;;;;;;45.67;25.40;;;31.90;99.30;;;;;;5111080;28;20091;-66
2023/08/10 11:47:41;;;;;;;47.38;25.88;;;31.90;99.70;;;;;;5109384;28;20038;-65
2023/08/10 11:50:10;;;;;;;44.90;26.00;;;31.90;99.60;;;;;;5110612;28;20074;-66
2023/08/10 11:52:40;;;;;;;61.00;32.90;;;31.90;99.80;;;;;;5110444;28;20028;-66
2023/08/10 11:55:13;;;;;;;59.65;32.30;;;31.90;99.70;;;;;;5110137;28;20512;-66
2023/08/10 11:57:42;;;;;;;44.25;26.00;;;31.80;99.90;;;;;;5103427;28;20516;-66
2023/08/10 12:00:21;;;;;;;51.35;25.58;;;31.80;99.90;;;;;;5091275;28;20497;-68
2023/08/10 12:03:01;;;;;;;44.33;26.27;;;31.80;99.90;;;;;;5089529;28;20429;-67
2023/08/10 12:05:39;;;;;;;40.17;26.98;;;31.70;99.90;;;;;;5089358;28;20086;-64
2023/08/10 12:08:10;;;;;;;716.92;637.10;;;31.70;99.90;;;;;;5093476;28;20028;-65
2023/08/10 12:10:41;;;;;;;49.30;29.60;;;31.60;99.90;;;;;;5104231;28;20359;-65
2023/08/10 12:13:13;;;;;;;48.55;29.55;;;31.60;99.90;;;;;;5107003;28;20031;-65
2023/08/10 12:15:55;;;;;;;55.22;31.60;;;31.50;99.90;;;;;;5108044;28;20038;-64
2023/08/10 12:18:23;;;;;;;508.02;444.73;;;31.50;99.90;;;;;;5088287;28;20094;-65
2023/08/10 12:20:53;;;;;;;45.33;28.23;;;31.40;99.90;;;;;;5088899;28;20031;-64
2023/08/10 12:23:21;;;;;;;537.85;478.58;;;31.40;99.90;;;;;;5087823;28;20436;-64
2023/08/10 12:25:48;;;;;;;50.03;28.92;;;31.30;99.90;;;;;;5079587;28;20119;-66
2023/08/10 12:28:17;;;;;;;55.67;33.45;;;31.30;99.90;;;;;;5076910;28;20032;-65
2023/08/10 12:30:44;;;;;;;49.88;32.05;;;31.30;99.90;;;;;;5074661;28;20119;-64
2023/08/10 12:33:12;;;;;;;50.08;32.38;;;31.20;99.90;;;;;;5074675;28;20052;-65
2023/08/10 12:35:39;;;;;;;49.35;29.10;;;31.10;99.90;;;;;;5074739;28;20032;-64
2023/08/10 12:38:06;;;;;;;121.53;107.65;;;31.10;99.90;;;;;;5074403;28;20074;-65
2023/08/10 12:40:34;;;;;;;48.20;29.42;;;31.10;99.90;;;;;;5074234;28;20048;-65
2023/08/10 12:43:00;;;;;;;46.42;28.48;;;31.00;99.90;;;;;;5074387;28;20032;-65
2023/08/10 12:45:27;;;;;;;36.25;25.20;;;31.00;99.90;;;;;;5075167;28;20111;-64
2023/08/10 12:47:56;;;;;;;41.95;25.42;;;31.00;99.90;;;;;;5075476;28;20027;-65
2023/08/10 12:50:23;;;;;;;43.47;24.65;;;30.90;99.90;;;;;;5075667;28;20107;-66
2023/08/10 12:52:50;;;;;;;53.47;33.90;;;30.90;99.90;;;;;;5063574;28;20032;-67
2023/08/10 12:55:18;;;;;;;45.13;29.27;;;30.90;99.90;;;;;;5055443;28;20036;-66
2023/08/10 12:57:47;;;;;;;36.33;23.00;;;30.90;99.90;;;;;;5055601;28;20395;-66
2023/08/10 13:00:17;;;;;;;59.90;34.58;;;30.80;99.90;;;;;;5057420;28;20433;-66
2023/08/10 13:02:45;;;;;;;39.13;24.63;;;30.70;99.90;;;;;;5055108;28;20027;-65
2023/08/10 13:05:12;;;;;;;40.90;24.15;;;30.70;99.90;;;;;;5066721;28;20025;-66
2023/08/10 13:07:40;;;;;;;45.22;27.20;;;30.70;99.90;;;;;;5074891;28;20020;-65